Bergamo / Orio Al Serio Airport LIME

Flugplatz Daten

Name: Bergamo / Orio Al Serio Airport

Ident: LIME

Lat: 45,6739006

Long: 9,704170227

Platzhöhe: 782 ft

IataCode: BGY

City: Bergamo

Homepage: http://www.sacbo.it/

Metar

2021/12/03 23:20
LIME 032320Z 01007KT CAVOK 02/M02 Q1015 NOSIG

Taf

2021/12/03 18:00
TAF LIME 031700Z 0318/0418 VRB05KT CAVOK
Gewünschte Webcam nicht vorhanden? Dann fügen Sie eine hinzu. Sie wird dann so schnell wie möglich freigeschaltet
Url: Title: